EZY96WL LGKR-EGKK
Flight info
| Callsign | EZY96WL |
|---|---|
| Flight time | N/A |
| Altitude | 38000 |
| Route | OLGAT DCT ABADI DCT CRAYE DCT GISAM DCT IXONA DCT RESIA DCT ELMUR L613 HOC DCT LUL DCT RLP DCT ROTSI DCT KOTUN DCT NINAL DCT KESAX DCT KUNAV |
| Aircraft | A320/M-SDE2E3FGHIJ1RWXYZ/LB1 |
Departure
| Time | N/A |
|---|---|
| Airport | Corfu Ioannis Kapodistrias International Airport (LGKR) |
Arrival
| Time | 2026-05-05 21:10 |
|---|---|
| Airport | London Gatwick Airport (EGKK) |
| Time | Latitude | Longitude | Altitude | Speed | Heading |
|---|---|---|---|---|---|
| 2026-05-05 19:59 | 47.77291 | 5.89735 | 37866 ft | 433 kts | 284° |
| 2026-05-05 20:00 | 47.78177 | 5.85459 | 37866 ft | 433 kts | 284° |
| 2026-05-05 20:00 | 47.79953 | 5.76902 | 37860 ft | 433 kts | 284° |
| 2026-05-05 20:00 | 47.81019 | 5.72707 | 37860 ft | 437 kts | 296° |
| 2026-05-05 20:01 | 47.82717 | 5.68941 | 37862 ft | 440 kts | 304° |
| 2026-05-05 20:01 | 47.86407 | 5.61668 | 37852 ft | 441 kts | 304° |
| 2026-05-05 20:02 | 47.90125 | 5.54387 | 37849 ft | 441 kts | 304° |
| 2026-05-05 20:02 | 47.93882 | 5.47133 | 37850 ft | 442 kts | 307° |
| 2026-05-05 20:03 | 47.97961 | 5.40240 | 37862 ft | 444 kts | 310° |
| 2026-05-05 20:03 | 48.02175 | 5.33506 | 37867 ft | 444 kts | 310° |
| 2026-05-05 20:04 | 48.06338 | 5.26692 | 37858 ft | 444 kts | 309° |
| 2026-05-05 20:04 | 48.10437 | 5.19796 | 37854 ft | 443 kts | 309° |
| 2026-05-05 20:05 | 48.14530 | 5.12885 | 37857 ft | 444 kts | 309° |
| 2026-05-05 20:05 | 48.18629 | 5.05976 | 37852 ft | 444 kts | 309° |
| 2026-05-05 20:06 | 48.22731 | 4.99064 | 37847 ft | 444 kts | 309° |
| 2026-05-05 20:06 | 48.26823 | 4.92131 | 37849 ft | 444 kts | 309° |
| 2026-05-05 20:07 | 48.30914 | 4.85194 | 37847 ft | 444 kts | 309° |
| 2026-05-05 20:07 | 48.34978 | 4.78293 | 37844 ft | 444 kts | 309° |
| 2026-05-05 20:08 | 48.39057 | 4.71327 | 37847 ft | 444 kts | 309° |
| 2026-05-05 20:08 | 48.43135 | 4.64360 | 37834 ft | 444 kts | 309° |
| 2026-05-05 20:09 | 48.47203 | 4.57378 | 37838 ft | 444 kts | 309° |
| 2026-05-05 20:09 | 48.51276 | 4.50370 | 37826 ft | 444 kts | 309° |
| 2026-05-05 20:10 | 48.55342 | 4.43360 | 37830 ft | 444 kts | 309° |
| 2026-05-05 20:10 | 48.59414 | 4.36345 | 37836 ft | 444 kts | 309° |
| 2026-05-05 20:11 | 48.63473 | 4.29305 | 37836 ft | 444 kts | 309° |
| 2026-05-05 20:11 | 48.67520 | 4.22252 | 37841 ft | 444 kts | 309° |
| 2026-05-05 20:12 | 48.71566 | 4.15187 | 37842 ft | 444 kts | 309° |
| 2026-05-05 20:12 | 48.75615 | 4.08120 | 37841 ft | 444 kts | 309° |
| 2026-05-05 20:13 | 48.79660 | 4.01044 | 37840 ft | 444 kts | 309° |
| 2026-05-05 20:13 | 48.83616 | 3.94103 | 37830 ft | 444 kts | 309° |
| 2026-05-05 20:14 | 48.87652 | 3.87002 | 37825 ft | 444 kts | 309° |
| 2026-05-05 20:14 | 48.91677 | 3.79880 | 37817 ft | 444 kts | 309° |
| 2026-05-05 20:15 | 48.95697 | 3.72750 | 37814 ft | 444 kts | 309° |
| 2026-05-05 20:15 | 48.99725 | 3.65605 | 37815 ft | 444 kts | 309° |
| 2026-05-05 20:16 | 49.03745 | 3.58457 | 37813 ft | 445 kts | 309° |
| 2026-05-05 20:16 | 49.07764 | 3.51284 | 37814 ft | 445 kts | 309° |
| 2026-05-05 20:17 | 49.11777 | 3.44100 | 37817 ft | 445 kts | 309° |
| 2026-05-05 20:17 | 49.15781 | 3.36900 | 37822 ft | 445 kts | 309° |
| 2026-05-05 20:18 | 49.19783 | 3.29690 | 37822 ft | 445 kts | 309° |
| 2026-05-05 20:18 | 49.23786 | 3.22454 | 37821 ft | 445 kts | 309° |
| 2026-05-05 20:19 | 49.27722 | 3.15332 | 37826 ft | 445 kts | 308° |
| 2026-05-05 20:19 | 49.31715 | 3.08087 | 37831 ft | 445 kts | 308° |
| 2026-05-05 20:20 | 49.35707 | 3.00833 | 37836 ft | 445 kts | 308° |
| 2026-05-05 20:20 | 49.39694 | 2.93556 | 37840 ft | 445 kts | 308° |
| 2026-05-05 20:21 | 49.43674 | 2.86277 | 37844 ft | 445 kts | 308° |
| 2026-05-05 20:21 | 49.47650 | 2.78981 | 37849 ft | 445 kts | 308° |
| 2026-05-05 20:22 | 49.51626 | 2.71669 | 37852 ft | 445 kts | 308° |
| 2026-05-05 20:22 | 49.54926 | 2.65596 | 37857 ft | 445 kts | 308° |
| 2026-05-05 20:23 | 49.59529 | 2.57079 | 37858 ft | 445 kts | 308° |
| 2026-05-05 20:23 | 49.62841 | 2.50929 | 37868 ft | 445 kts | 308° |
| 2026-05-05 20:24 | 49.66791 | 2.43576 | 37868 ft | 445 kts | 308° |
| 2026-05-05 20:24 | 49.70735 | 2.36217 | 37864 ft | 446 kts | 308° |
| 2026-05-05 20:24 | 49.72734 | 2.32477 | 37632 ft | 455 kts | 308° |
| 2026-05-05 20:25 | 49.74759 | 2.28688 | 37389 ft | 458 kts | 308° |
| 2026-05-05 20:25 | 49.76787 | 2.24892 | 37133 ft | 457 kts | 308° |
| 2026-05-05 20:25 | 49.78806 | 2.21103 | 36879 ft | 456 kts | 308° |
| 2026-05-05 20:25 | 49.80815 | 2.17323 | 36610 ft | 454 kts | 308° |
| 2026-05-05 20:26 | 49.82815 | 2.13557 | 36355 ft | 451 kts | 308° |
| 2026-05-05 20:26 | 49.84801 | 2.09813 | 36102 ft | 449 kts | 308° |
| 2026-05-05 20:26 | 49.86774 | 2.06088 | 35682 ft | 445 kts | 308° |
| 2026-05-05 20:26 | 49.88737 | 2.02379 | 35145 ft | 443 kts | 309° |
| 2026-05-05 20:27 | 49.90681 | 1.98700 | 34902 ft | 440 kts | 309° |
| 2026-05-05 20:27 | 49.94556 | 1.91366 | 34900 ft | 440 kts | 309° |
| 2026-05-05 20:28 | 49.98427 | 1.84002 | 34901 ft | 440 kts | 308° |
| 2026-05-05 20:28 | 50.02285 | 1.76634 | 34907 ft | 440 kts | 308° |
| 2026-05-05 20:28 | 50.04216 | 1.72939 | 34592 ft | 442 kts | 308° |
| 2026-05-05 20:29 | 50.06173 | 1.69191 | 33602 ft | 451 kts | 309° |
| 2026-05-05 20:29 | 50.08369 | 1.65696 | 32820 ft | 451 kts | 319° |
| 2026-05-05 20:29 | 50.10736 | 1.62502 | 32198 ft | 448 kts | 319° |
| 2026-05-05 20:29 | 50.13070 | 1.59335 | 31645 ft | 443 kts | 319° |
| 2026-05-05 20:30 | 50.15377 | 1.56197 | 31125 ft | 439 kts | 319° |
| 2026-05-05 20:30 | 50.17669 | 1.53076 | 30603 ft | 434 kts | 319° |
| 2026-05-05 20:30 | 50.19905 | 1.50031 | 30097 ft | 430 kts | 320° |
| 2026-05-05 20:30 | 50.22146 | 1.46975 | 29522 ft | 426 kts | 320° |
| 2026-05-05 20:31 | 50.24396 | 1.43897 | 28928 ft | 422 kts | 320° |
| 2026-05-05 20:31 | 50.26596 | 1.40881 | 28368 ft | 418 kts | 319° |
| 2026-05-05 20:31 | 50.28769 | 1.37899 | 27821 ft | 414 kts | 319° |
| 2026-05-05 20:31 | 50.30924 | 1.34942 | 27286 ft | 410 kts | 319° |
| 2026-05-05 20:32 | 50.33055 | 1.32022 | 26754 ft | 406 kts | 319° |
| 2026-05-05 20:32 | 50.35170 | 1.29125 | 26237 ft | 401 kts | 319° |
| 2026-05-05 20:32 | 50.37261 | 1.26260 | 25721 ft | 397 kts | 319° |
| 2026-05-05 20:32 | 50.39303 | 1.23454 | 25226 ft | 394 kts | 319° |
| 2026-05-05 20:33 | 50.41349 | 1.20630 | 24731 ft | 390 kts | 319° |
| 2026-05-05 20:33 | 50.43375 | 1.17827 | 24240 ft | 387 kts | 319° |
| 2026-05-05 20:33 | 50.45383 | 1.15048 | 23757 ft | 383 kts | 319° |
| 2026-05-05 20:33 | 50.47374 | 1.12292 | 23251 ft | 380 kts | 319° |
| 2026-05-05 20:34 | 50.49350 | 1.09559 | 22715 ft | 377 kts | 319° |
| 2026-05-05 20:34 | 50.51307 | 1.06840 | 22203 ft | 374 kts | 317° |
| 2026-05-05 20:34 | 50.53096 | 1.03910 | 21716 ft | 371 kts | 314° |
| 2026-05-05 20:34 | 50.54851 | 1.00949 | 21227 ft | 368 kts | 314° |
| 2026-05-05 20:35 | 50.56593 | 0.98011 | 20751 ft | 366 kts | 314° |
| 2026-05-05 20:35 | 50.58323 | 0.95096 | 20309 ft | 363 kts | 314° |
| 2026-05-05 20:35 | 50.60039 | 0.92199 | 19862 ft | 361 kts | 314° |
| 2026-05-05 20:35 | 50.61735 | 0.89333 | 19565 ft | 354 kts | 314° |
| 2026-05-05 20:36 | 50.63389 | 0.86530 | 19315 ft | 346 kts | 314° |
| 2026-05-05 20:36 | 50.65008 | 0.83785 | 19085 ft | 338 kts | 314° |
| 2026-05-05 20:36 | 50.66591 | 0.81101 | 18864 ft | 331 kts | 314° |
| 2026-05-05 20:36 | 50.68134 | 0.78432 | 18535 ft | 328 kts | 312° |
| 2026-05-05 20:37 | 50.69600 | 0.75687 | 18192 ft | 326 kts | 310° |
| 2026-05-05 20:37 | 50.71014 | 0.72903 | 17810 ft | 324 kts | 309° |
| 2026-05-05 20:37 | 50.72405 | 0.70112 | 17410 ft | 323 kts | 309° |
| 2026-05-05 20:37 | 50.73786 | 0.67336 | 17033 ft | 321 kts | 309° |
| 2026-05-05 20:38 | 50.75168 | 0.64577 | 16674 ft | 319 kts | 309° |
| 2026-05-05 20:38 | 50.76549 | 0.61839 | 16314 ft | 318 kts | 310° |
| 2026-05-05 20:38 | 50.77928 | 0.59115 | 15980 ft | 316 kts | 310° |
| 2026-05-05 20:38 | 50.79301 | 0.56412 | 15642 ft | 315 kts | 310° |
| 2026-05-05 20:39 | 50.80668 | 0.53729 | 15306 ft | 313 kts | 310° |
| 2026-05-05 20:39 | 50.82030 | 0.51050 | 14980 ft | 312 kts | 310° |
| 2026-05-05 20:39 | 50.83385 | 0.48383 | 14660 ft | 310 kts | 310° |
| 2026-05-05 20:39 | 50.84732 | 0.45724 | 14345 ft | 309 kts | 310° |
| 2026-05-05 20:40 | 50.86068 | 0.43075 | 14073 ft | 307 kts | 310° |
| 2026-05-05 20:40 | 50.87204 | 0.40819 | 13806 ft | 306 kts | 310° |
| 2026-05-05 20:40 | 50.88530 | 0.38195 | 13488 ft | 304 kts | 310° |
| 2026-05-05 20:40 | 50.89847 | 0.35584 | 13226 ft | 303 kts | 310° |
| 2026-05-05 20:41 | 50.91153 | 0.32987 | 12985 ft | 300 kts | 310° |
| 2026-05-05 20:41 | 50.92441 | 0.30423 | 12760 ft | 294 kts | 310° |
| 2026-05-05 20:41 | 50.93703 | 0.27909 | 12530 ft | 289 kts | 310° |
| 2026-05-05 20:41 | 50.94979 | 0.25486 | 12297 ft | 283 kts | 318° |
| 2026-05-05 20:42 | 50.96605 | 0.23839 | 12078 ft | 276 kts | 341° |
| 2026-05-05 20:42 | 50.98464 | 0.23361 | 11857 ft | 270 kts | 4° |
| 2026-05-05 20:42 | 51.00259 | 0.24063 | 11642 ft | 265 kts | 26° |
| 2026-05-05 20:42 | 51.01722 | 0.25774 | 11427 ft | 262 kts | 47° |
| 2026-05-05 20:43 | 51.02659 | 0.28221 | 11217 ft | 259 kts | 70° |
| 2026-05-05 20:43 | 51.02946 | 0.31017 | 10997 ft | 257 kts | 91° |
| 2026-05-05 20:43 | 51.02569 | 0.33765 | 10777 ft | 256 kts | 112° |
| 2026-05-05 20:43 | 51.01647 | 0.36158 | 10559 ft | 253 kts | 124° |
| 2026-05-05 20:44 | 51.00589 | 0.38362 | 10331 ft | 249 kts | 127° |
| 2026-05-05 20:44 | 50.99511 | 0.40486 | 10108 ft | 245 kts | 128° |
| 2026-05-05 20:44 | 50.98445 | 0.42563 | 9876 ft | 241 kts | 127° |
| 2026-05-05 20:44 | 50.97393 | 0.44620 | 9631 ft | 239 kts | 127° |
| 2026-05-05 20:45 | 50.94803 | 0.47797 | 9118 ft | 239 kts | 161° |
| 2026-05-05 20:45 | 50.93164 | 0.48193 | 8872 ft | 239 kts | 182° |
| 2026-05-05 20:45 | 50.91547 | 0.47669 | 8628 ft | 238 kts | 204° |
| 2026-05-05 20:46 | 50.90152 | 0.46303 | 8386 ft | 236 kts | 225° |
| 2026-05-05 20:46 | 50.89148 | 0.44285 | 8152 ft | 232 kts | 245° |
| 2026-05-05 20:46 | 50.88641 | 0.41891 | 8015 ft | 229 kts | 265° |
| 2026-05-05 20:46 | 50.88662 | 0.39412 | 7999 ft | 225 kts | 284° |
| 2026-05-05 20:47 | 50.89173 | 0.37104 | 7993 ft | 221 kts | 302° |
| 2026-05-05 20:47 | 50.90023 | 0.35089 | 8003 ft | 220 kts | 309° |
| 2026-05-05 20:47 | 50.90965 | 0.33176 | 8006 ft | 220 kts | 311° |
| 2026-05-05 20:47 | 50.91930 | 0.31292 | 8008 ft | 220 kts | 311° |
| 2026-05-05 20:48 | 50.92898 | 0.29410 | 8023 ft | 220 kts | 311° |
| 2026-05-05 20:48 | 50.93868 | 0.27519 | 8019 ft | 227 kts | 313° |
| 2026-05-05 20:48 | 50.94990 | 0.25602 | 8029 ft | 239 kts | 316° |
| 2026-05-05 20:48 | 50.96143 | 0.23730 | 8028 ft | 240 kts | 316° |
| 2026-05-05 20:49 | 50.97306 | 0.21854 | 8035 ft | 240 kts | 316° |
| 2026-05-05 20:49 | 50.98480 | 0.19961 | 8033 ft | 239 kts | 316° |
| 2026-05-05 20:49 | 50.99646 | 0.18081 | 8038 ft | 240 kts | 316° |
| 2026-05-05 20:49 | 51.00816 | 0.16196 | 8031 ft | 240 kts | 316° |
| 2026-05-05 20:50 | 51.01992 | 0.14309 | 8045 ft | 240 kts | 316° |
| 2026-05-05 20:50 | 51.03155 | 0.12437 | 7961 ft | 240 kts | 316° |
| 2026-05-05 20:50 | 51.04326 | 0.10551 | 7969 ft | 240 kts | 316° |
| 2026-05-05 20:50 | 51.05499 | 0.08663 | 7966 ft | 240 kts | 316° |
| 2026-05-05 20:51 | 51.06671 | 0.06776 | 7967 ft | 240 kts | 316° |
| 2026-05-05 20:51 | 51.07844 | 0.04887 | 7971 ft | 240 kts | 316° |
| 2026-05-05 20:51 | 51.09016 | 0.02997 | 7974 ft | 240 kts | 316° |
| 2026-05-05 20:51 | 51.10185 | 0.01110 | 7973 ft | 240 kts | 316° |
| 2026-05-05 20:52 | 51.11357 | -0.00782 | 7973 ft | 240 kts | 316° |
| 2026-05-05 20:52 | 51.12409 | -0.02838 | 7970 ft | 242 kts | 297° |
| 2026-05-05 20:52 | 51.12734 | -0.05459 | 7973 ft | 247 kts | 266° |
| 2026-05-05 20:52 | 51.12158 | -0.08027 | 7966 ft | 252 kts | 235° |
| 2026-05-05 20:53 | 51.10886 | -0.09958 | 7982 ft | 255 kts | 218° |
| 2026-05-05 20:53 | 51.09457 | -0.11619 | 7971 ft | 256 kts | 216° |
| 2026-05-05 20:53 | 51.08000 | -0.13256 | 7968 ft | 256 kts | 216° |
| 2026-05-05 20:53 | 51.06544 | -0.14880 | 7976 ft | 256 kts | 216° |
| 2026-05-05 20:54 | 51.05276 | -0.16291 | 7970 ft | 256 kts | 216° |
| 2026-05-05 20:54 | 51.03818 | -0.17913 | 7976 ft | 256 kts | 216° |
| 2026-05-05 20:54 | 51.02359 | -0.19533 | 7968 ft | 256 kts | 216° |
| 2026-05-05 20:54 | 51.00900 | -0.21154 | 7975 ft | 256 kts | 216° |
| 2026-05-05 20:55 | 50.99440 | -0.22774 | 7976 ft | 256 kts | 216° |
| 2026-05-05 20:55 | 50.97981 | -0.24392 | 7947 ft | 255 kts | 216° |
| 2026-05-05 20:55 | 50.96530 | -0.26000 | 7620 ft | 254 kts | 216° |
| 2026-05-05 20:55 | 50.95088 | -0.27597 | 7268 ft | 253 kts | 216° |
| 2026-05-05 20:56 | 50.93651 | -0.29189 | 6929 ft | 251 kts | 216° |
| 2026-05-05 20:56 | 50.92218 | -0.30772 | 6594 ft | 250 kts | 216° |
| 2026-05-05 20:56 | 50.90796 | -0.32346 | 6258 ft | 249 kts | 216° |
| 2026-05-05 20:56 | 50.89396 | -0.33939 | 6006 ft | 245 kts | 223° |
| 2026-05-05 20:57 | 50.88450 | -0.36130 | 5991 ft | 243 kts | 255° |
| 2026-05-05 20:57 | 50.88368 | -0.38736 | 5990 ft | 237 kts | 287° |
| 2026-05-05 20:57 | 50.89152 | -0.40960 | 5994 ft | 231 kts | 319° |
| 2026-05-05 20:57 | 50.90540 | -0.42124 | 5990 ft | 227 kts | 351° |
| 2026-05-05 20:58 | 50.92116 | -0.42312 | 5996 ft | 228 kts | 0° |
| 2026-05-05 20:58 | 50.93690 | -0.42148 | 5993 ft | 227 kts | 17° |
| 2026-05-05 20:58 | 50.95011 | -0.40825 | 5991 ft | 229 kts | 49° |
| 2026-05-05 20:58 | 50.95747 | -0.38580 | 6000 ft | 233 kts | 68° |
| 2026-05-05 20:59 | 50.96246 | -0.36130 | 6001 ft | 234 kts | 71° |
| 2026-05-05 20:59 | 50.96715 | -0.33661 | 5994 ft | 234 kts | 71° |
| 2026-05-05 20:59 | 50.97177 | -0.31186 | 6003 ft | 234 kts | 71° |
| 2026-05-05 20:59 | 50.97648 | -0.28715 | 5997 ft | 233 kts | 67° |
| 2026-05-05 21:00 | 50.98550 | -0.26646 | 6002 ft | 229 kts | 36° |
| 2026-05-05 21:00 | 50.99989 | -0.25712 | 5995 ft | 227 kts | 5° |
| 2026-05-05 21:00 | 51.01526 | -0.26164 | 5801 ft | 228 kts | 333° |
| 2026-05-05 21:00 | 51.02659 | -0.27902 | 5624 ft | 232 kts | 300° |
| 2026-05-05 21:01 | 51.03033 | -0.30391 | 5441 ft | 237 kts | 272° |
| 2026-05-05 21:01 | 51.02934 | -0.33015 | 5148 ft | 238 kts | 267° |
| 2026-05-05 21:01 | 51.02764 | -0.35630 | 4779 ft | 238 kts | 266° |
| 2026-05-05 21:01 | 51.02584 | -0.38241 | 4425 ft | 237 kts | 266° |
| 2026-05-05 21:02 | 51.02407 | -0.40843 | 4065 ft | 237 kts | 266° |
| 2026-05-05 21:02 | 51.02236 | -0.43427 | 3820 ft | 233 kts | 266° |
| 2026-05-05 21:02 | 51.02072 | -0.46008 | 3682 ft | 235 kts | 266° |
| 2026-05-05 21:02 | 51.01910 | -0.48594 | 3598 ft | 235 kts | 266° |
| 2026-05-05 21:03 | 51.01915 | -0.51168 | 3511 ft | 232 kts | 286° |
| 2026-05-05 21:03 | 51.02657 | -0.53282 | 3440 ft | 224 kts | 319° |
| 2026-05-05 21:03 | 51.03968 | -0.54407 | 3373 ft | 209 kts | 346° |
| 2026-05-05 21:03 | 51.05345 | -0.54895 | 3344 ft | 197 kts | 351° |
| 2026-05-05 21:04 | 51.06221 | -0.55155 | 3324 ft | 191 kts | 353° |
| 2026-05-05 21:04 | 51.07511 | -0.54988 | 3297 ft | 186 kts | 18° |
| 2026-05-05 21:04 | 51.08674 | -0.54131 | 3270 ft | 184 kts | 34° |
| 2026-05-05 21:04 | 51.09623 | -0.52774 | 3244 ft | 184 kts | 51° |
| 2026-05-05 21:05 | 51.10282 | -0.51029 | 3219 ft | 185 kts | 67° |
| 2026-05-05 21:05 | 51.10618 | -0.49057 | 3202 ft | 186 kts | 76° |
| 2026-05-05 21:05 | 51.10902 | -0.47050 | 3124 ft | 186 kts | 76° |
| 2026-05-05 21:05 | 51.11185 | -0.45050 | 3036 ft | 185 kts | 76° |
| 2026-05-05 21:06 | 51.11466 | -0.43050 | 2982 ft | 185 kts | 76° |
| 2026-05-05 21:06 | 51.11747 | -0.41051 | 2820 ft | 185 kts | 76° |
| 2026-05-05 21:06 | 51.12027 | -0.39053 | 2593 ft | 185 kts | 77° |
| 2026-05-05 21:06 | 51.12309 | -0.37035 | 2346 ft | 188 kts | 77° |
| 2026-05-05 21:07 | 51.12594 | -0.35000 | 2100 ft | 189 kts | 77° |
| 2026-05-05 21:07 | 51.12870 | -0.33025 | 1853 ft | 175 kts | 77° |
| 2026-05-05 21:07 | 51.13123 | -0.31206 | 1603 ft | 163 kts | 77° |
| 2026-05-05 21:07 | 51.13358 | -0.29522 | 1404 ft | 150 kts | 77° |
| 2026-05-05 21:08 | 51.13578 | -0.27944 | 1187 ft | 142 kts | 77° |
| 2026-05-05 21:08 | 51.13790 | -0.26418 | 983 ft | 141 kts | 77° |
| 2026-05-05 21:08 | 51.14000 | -0.24903 | 787 ft | 140 kts | 77° |
| 2026-05-05 21:08 | 51.14208 | -0.23392 | 585 ft | 140 kts | 76° |
| 2026-05-05 21:09 | 51.14420 | -0.21883 | 397 ft | 139 kts | 76° |
| 2026-05-05 21:09 | 51.14628 | -0.20386 | 221 ft | 137 kts | 76° |
| 2026-05-05 21:09 | 51.14808 | -0.19092 | 209 ft | 98 kts | 78° |
| 2026-05-05 21:09 | 51.14920 | -0.18281 | 208 ft | 54 kts | 77° |
| 2026-05-05 21:10 | 51.15029 | -0.17858 | 210 ft | 28 kts | 53° |
| 2026-05-05 21:10 | 51.15135 | -0.17762 | 206 ft | 11 kts | 358° |
| 2026-05-05 21:10 | 51.15205 | -0.17776 | 210 ft | 10 kts | 349° |
| 2026-05-05 21:10 | 51.15260 | -0.17752 | 214 ft | 9 kts | 65° |
| 2026-05-05 21:11 | 51.15277 | -0.17631 | 214 ft | 14 kts | 78° |
| 2026-05-05 21:11 | 51.15294 | -0.17492 | 205 ft | 12 kts | 79° |
| 2026-05-05 21:11 | 51.15334 | -0.17377 | 210 ft | 13 kts | 12° |
| 2026-05-05 21:11 | 51.15429 | -0.17401 | 206 ft | 16 kts | 348° |
| 2026-05-05 21:12 | 51.15465 | -0.17413 | 205 ft | 17 kts | 347° |
| 2026-05-05 21:12 | 51.15535 | -0.17454 | 205 ft | 9 kts | 313° |
| 2026-05-05 21:12 | 51.15557 | -0.17525 | 213 ft | 6 kts | 323° |
| 2026-05-05 21:12 | 51.15587 | -0.17553 | 207 ft | 3 kts | 329° |
| 2026-05-05 21:13 | 51.15598 | -0.17564 | 207 ft | 1 kts | 328° |